Time;durP1;ratioP1;P1;durP2;ratioP2;P2;SDS_P1;SDS_P2;PMS_P1;PMS_P2;Temp;Humidity;BMP_temperature;BMP_pressure;BME280_temperature;BME280_humidity;BME280_pressure;Samples;Min_cycle;Max_cycle;Signal;HPM_P1;HPM_P2
2020/12/16 00:04:50;;;;;;;14.10;9.27;;;;;;;7.39;100.00;98354.35;3738907;78;44050;-23
2020/12/16 00:09:56;;;;;;;12.97;8.93;;;;;;;7.35;100.00;98356.95;3838318;75;44034;-22
2020/12/16 00:15:02;;;;;;;15.77;10.67;;;;;;;7.37;100.00;98360.85;3818173;76;43339;-23
2020/12/16 00:20:10;;;;;;;15.37;10.03;;;;;;;7.36;100.00;98359.16;3841312;76;44361;-23
2020/12/16 00:25:16;;;;;;;14.93;9.57;;;;;;;7.37;100.00;98359.52;3840376;76;43734;-23
2020/12/16 00:30:22;;;;;;;16.03;10.63;;;;;;;7.35;100.00;98358.30;3836537;76;44075;-23
2020/12/16 00:35:29;;;;;;;16.33;10.50;;;;;;;7.32;100.00;98358.60;3752107;77;43686;-22
2020/12/16 00:40:35;;;;;;;16.80;10.47;;;;;;;7.30;100.00;98359.23;3754980;77;43378;-23
2020/12/16 00:45:40;;;;;;;16.17;10.17;;;;;;;7.31;100.00;98366.29;3739769;79;43676;-24
2020/12/16 00:50:46;;;;;;;14.70;9.57;;;;;;;7.29;100.00;98368.25;3760020;79;43341;-23
2020/12/16 00:55:52;;;;;;;15.93;10.50;;;;;;;7.25;100.00;98357.45;3787694;77;44498;-23
2020/12/16 01:01:00;;;;;;;15.93;10.40;;;;;;;7.20;100.00;98365.09;3722705;79;43355;-23
2020/12/16 01:06:07;;;;;;;16.13;9.90;;;;;;;7.24;100.00;98369.16;3746276;79;43290;-23
2020/12/16 01:11:14;;;;;;;16.30;10.67;;;;;;;7.25;100.00;98392.30;3800550;77;44287;-23
2020/12/16 01:16:20;;;;;;;16.53;11.07;;;;;;;7.23;100.00;98391.61;3723821;79;43675;-23
2020/12/16 01:21:27;;;;;;;14.33;9.97;;;;;;;7.24;100.00;98411.56;3800428;77;44259;-23
2020/12/16 01:26:40;;;;;;;15.43;10.23;;;;;;;7.29;100.00;98417.00;3791918;77;44947;-23
2020/12/16 01:31:48;;;;;;;17.13;10.87;;;;;;;7.28;100.00;98424.17;3802560;76;43692;-23
2020/12/16 01:37:03;;;;;;;13.77;9.40;;;;;;;7.31;100.00;98426.58;3764706;77;26366;-24
2020/12/16 01:42:13;;;;;;;14.93;9.93;;;;;;;7.28;100.00;98426.86;3768527;77;26443;-24
2020/12/16 01:47:20;;;;;;;15.80;10.57;;;;;;;7.30;100.00;98430.72;3703623;78;78072;-24
2020/12/16 01:52:29;;;;;;;15.67;10.53;;;;;;;7.27;100.00;98434.54;3751734;79;26342;-23
2020/12/16 01:57:37;;;;;;;15.00;9.77;;;;;;;7.26;100.00;98440.88;3753282;77;43338;-23
2020/12/16 02:02:48;;;;;;;15.87;10.37;;;;;;;7.31;100.00;98437.30;3759749;77;26933;-24
2020/12/16 02:07:58;;;;;;;14.37;9.43;;;;;;;7.27;100.00;98441.23;3752304;79;26400;-24
2020/12/16 02:13:07;;;;;;;14.70;9.80;;;;;;;7.24;100.00;98444.19;3761190;77;43423;-24
2020/12/16 02:18:16;;;;;;;14.93;9.77;;;;;;;7.31;100.00;98452.05;3769300;77;26878;-24
2020/12/16 02:23:26;;;;;;;13.10;9.37;;;;;;;7.25;100.00;98456.13;3759268;77;44017;-24
2020/12/16 02:28:34;;;;;;;14.23;9.63;;;;;;;7.28;100.00;98455.50;3820284;77;26817;-24
2020/12/16 02:33:40;;;;;;;14.43;9.87;;;;;;;7.24;100.00;98457.59;3705540;79;43627;-24
2020/12/16 02:38:51;;;;;;;14.73;10.37;;;;;;;7.24;100.00;98457.59;3748533;77;26402;-24
2020/12/16 02:43:59;;;;;;;14.00;9.10;;;;;;;7.28;100.00;98452.83;3801928;77;26450;-24
2020/12/16 02:49:06;;;;;;;14.70;9.83;;;;;;;7.23;100.00;98459.94;3751883;77;27276;-24
2020/12/16 02:54:12;;;;;;;11.80;7.80;;;;;;;7.23;100.00;98454.58;3730159;77;43243;-24
2020/12/16 02:59:24;;;;;;;13.73;9.10;;;;;;;7.28;100.00;98448.30;3807615;77;26847;-23
2020/12/16 03:04:32;;;;;;;13.03;9.47;;;;;;;7.24;100.00;98455.77;3722496;79;26926;-23
2020/12/16 03:09:40;;;;;;;14.23;9.03;;;;;;;7.23;100.00;98458.09;3749359;79;26781;-24
2020/12/16 03:14:46;;;;;;;12.60;8.47;;;;;;;7.28;100.00;98459.52;3788711;77;44416;-24
2020/12/16 03:19:52;;;;;;;14.67;9.27;;;;;;;7.27;100.00;98457.32;3802800;77;42916;-24
2020/12/16 03:24:59;;;;;;;13.13;8.53;;;;;;;7.28;100.00;98457.67;3801544;76;43004;-23
2020/12/16 03:30:13;;;;;;;13.37;9.13;;;;;;;7.30;100.00;98459.73;3791237;77;26395;-23
2020/12/16 03:35:20;;;;;;;12.50;8.87;;;;;;;7.32;100.00;98462.26;3778844;77;26732;-23
2020/12/16 03:40:27;;;;;;;12.83;8.40;;;;;;;7.33;100.00;98466.16;3731287;79;26318;-23
2020/12/16 03:45:35;;;;;;;13.23;8.83;;;;;;;7.32;100.00;98479.20;3784841;77;27080;-24
2020/12/16 03:50:42;;;;;;;13.20;9.27;;;;;;;7.25;100.00;98474.02;3749519;79;43771;-24
2020/12/16 03:55:47;;;;;;;13.13;8.93;;;;;;;7.28;100.00;98471.58;3787748;77;44681;-24
2020/12/16 04:01:14;;;;;;;12.00;7.63;;;;;;;7.24;100.00;98480.36;3638404;81;26383;-22
2020/12/16 04:06:21;;;;;;;12.27;8.70;;;;;;;7.25;100.00;98478.04;3720850;79;43934;-23
2020/12/16 04:11:28;;;;;;;14.47;9.63;;;;;;;7.25;100.00;98484.74;3749176;79;43014;-23
2020/12/16 04:16:36;;;;;;;13.77;9.60;;;;;;;7.23;100.00;98489.42;3755308;79;26510;-23
2020/12/16 04:21:44;;;;;;;14.87;9.70;;;;;;;7.20;100.00;98496.38;3757281;79;26913;-22
2020/12/16 04:26:53;;;;;;;12.37;9.17;;;;;;;7.23;100.00;98506.84;3735173;77;26396;-23
2020/12/16 04:31:59;;;;;;;13.73;9.40;;;;;;;7.21;100.00;98507.45;3693655;79;43466;-23
2020/12/16 04:37:07;;;;;;;12.47;8.67;;;;;;;7.22;100.00;98505.14;3753258;79;26347;-23
2020/12/16 04:42:15;;;;;;;14.07;9.47;;;;;;;7.21;100.00;98506.13;3694720;79;26429;-23
2020/12/16 04:47:21;;;;;;;13.30;8.93;;;;;;;7.21;100.00;98506.13;3776453;77;44025;-23
2020/12/16 04:52:30;;;;;;;13.77;8.97;;;;;;;7.16;100.00;98511.03;3790870;77;26444;-23
2020/12/16 04:57:44;;;;;;;16.97;10.53;;;;;;;7.15;100.00;98517.38;3712981;77;26322;-23
2020/12/16 05:02:54;;;;;;;14.63;9.50;;;;;;;7.12;100.00;98516.30;3703966;79;44043;-23
2020/12/16 05:08:11;;;;;;;15.00;9.47;;;;;;;7.06;100.00;98515.88;3757021;77;26388;-22
2020/12/16 05:13:20;;;;;;;14.60;9.43;;;;;;;7.02;100.00;98520.31;3757461;79;44030;-23
2020/12/16 05:18:28;;;;;;;13.73;9.50;;;;;;;7.01;100.00;98531.50;3765085;77;43145;-24
2020/12/16 05:23:35;;;;;;;13.67;9.43;;;;;;;6.97;100.00;98530.56;3702376;79;44146;-23
2020/12/16 05:28:43;;;;;;;14.93;9.93;;;;;;;6.96;100.00;98533.75;3716798;78;44042;-23
2020/12/16 05:33:50;;;;;;;16.93;10.57;;;;;;;6.94;100.00;98531.70;3774345;76;44094;-23
2020/12/16 05:38:58;;;;;;;13.23;8.07;;;;;;;6.97;100.00;98531.44;3771652;77;44089;-24
2020/12/16 05:44:24;;;;;;;14.67;9.03;;;;;;;7.00;100.00;98537.00;3722244;79;44017;-23
2020/12/16 05:49:31;;;;;;;15.60;9.60;;;;;;;7.01;100.00;98542.72;3664506;80;43720;-23
2020/12/16 05:54:38;;;;;;;11.87;8.33;;;;;;;6.99;100.00;98546.88;3671127;80;44144;-23
2020/12/16 05:59:45;;;;;;;14.57;9.47;;;;;;;7.01;100.00;98551.59;3674249;80;43429;-23
2020/12/16 06:04:51;;;;;;;15.27;10.07;;;;;;;6.99;100.00;98553.58;3688425;80;42987;-24
2020/12/16 06:09:58;;;;;;;18.20;10.50;;;;;;;6.99;100.00;98558.08;3696582;80;44752;-24
2020/12/16 06:15:12;;;;;;;15.37;10.40;;;;;;;7.02;100.00;98563.17;3670050;80;44010;-23
2020/12/16 06:20:25;;;;;;;14.20;9.87;;;;;;;6.99;100.00;98558.08;3698516;80;44389;-23
2020/12/16 06:25:36;;;;;;;13.83;9.40;;;;;;;6.98;100.00;98562.59;3683923;80;44063;-23
2020/12/16 06:30:49;;;;;;;13.40;8.73;;;;;;;7.01;100.00;98564.15;3691212;80;44042;-23
2020/12/16 06:36:17;;;;;;;13.70;9.20;;;;;;;7.01;100.00;98566.33;3683751;80;43021;-24
2020/12/16 06:41:25;;;;;;;14.20;9.53;;;;;;;6.99;100.00;98580.37;3768757;77;43057;-24
2020/12/16 06:46:49;;;;;;;14.50;9.10;;;;;;;7.08;100.00;98571.52;3839283;76;44092;-23
2020/12/16 06:51:57;;;;;;;14.30;8.87;;;;;;;7.08;100.00;98576.88;3812081;76;44611;-24
2020/12/16 06:57:21;;;;;;;13.33;9.27;;;;;;;7.06;100.00;98576.16;3855529;76;44031;-23
2020/12/16 07:02:36;;;;;;;11.70;8.10;;;;;;;7.00;100.00;98573.16;3843390;76;44025;-23
2020/12/16 07:07:47;;;;;;;16.20;9.53;;;;;;;6.98;100.00;98580.48;3705932;78;43168;-23
2020/12/16 07:13:18;;;;;;;14.03;9.37;;;;;;;6.93;100.00;98584.91;3817076;76;44567;-24
2020/12/16 07:18:26;;;;;;;15.73;9.70;;;;;;;6.89;100.00;98589.69;3813482;76;44021;-24
2020/12/16 07:23:40;;;;;;;14.03;9.47;;;;;;;6.87;100.00;98599.68;3866909;76;43377;-22
2020/12/16 07:28:46;;;;;;;16.07;9.80;;;;;;;6.90;100.00;98600.77;3843691;76;43704;-25
2020/12/16 07:33:53;;;;;;;15.43;9.57;;;;;;;6.86;100.00;98605.19;3829268;76;44114;-24
2020/12/16 07:39:00;;;;;;;15.70;10.43;;;;;;;6.86;100.00;98603.34;3844132;76;44012;-24
2020/12/16 07:44:07;;;;;;;14.60;9.60;;;;;;;6.79;100.00;98603.02;3862659;77;43216;-24
2020/12/16 07:49:16;;;;;;;14.57;9.90;;;;;;;6.78;100.00;98603.16;3809519;77;44042;-21
2020/12/16 07:54:24;;;;;;;16.23;10.97;;;;;;;6.72;100.00;98605.02;3826866;77;43013;-24
2020/12/16 07:59:34;;;;;;;15.53;9.67;;;;;;;6.75;100.00;98612.79;3855852;76;44065;-23
2020/12/16 08:04:42;;;;;;;16.07;10.40;;;;;;;6.68;100.00;98605.77;3804870;77;43697;-24
2020/12/16 08:09:59;;;;;;;17.37;10.73;;;;;;;6.70;100.00;98605.16;3834878;77;44202;-23
2020/12/16 08:15:10;;;;;;;17.77;10.67;;;;;;;6.72;100.00;98610.37;3806963;77;44069;-24
2020/12/16 08:20:19;;;;;;;17.17;11.70;;;;;;;6.69;100.00;98600.78;3834082;77;43378;-24
2020/12/16 08:25:25;;;;;;;15.03;9.43;;;;;;;6.69;100.00;98603.96;3844470;77;43350;-23
2020/12/16 08:30:32;;;;;;;16.47;10.30;;;;;;;6.73;100.00;98610.26;3858922;77;44037;-23
2020/12/16 08:35:41;;;;;;;17.43;11.67;;;;;;;6.70;100.00;98605.16;3841249;77;44087;-23
2020/12/16 08:40:48;;;;;;;15.30;10.17;;;;;;;6.76;100.00;98609.97;3836573;76;43998;-23
2020/12/16 08:46:03;;;;;;;17.87;11.97;;;;;;;6.82;100.00;98613.11;3817771;75;43364;-24
2020/12/16 08:51:15;;;;;;;18.57;11.27;;;;;;;6.85;100.00;98615.53;3856757;76;44460;-23
2020/12/16 08:56:26;;;;;;;19.87;12.37;;;;;;;6.85;100.00;98627.08;3838801;75;44101;-23
2020/12/16 09:01:32;;;;;;;17.50;11.03;;;;;;;6.97;100.00;98633.22;3865632;76;44029;-23
2020/12/16 09:06:38;;;;;;;20.33;12.03;;;;;;;7.03;100.00;98623.30;3860931;76;43305;-24
2020/12/16 09:11:52;;;;;;;16.97;10.93;;;;;;;7.13;100.00;98627.84;3864972;76;44035;-23
2020/12/16 09:16:59;;;;;;;21.23;12.57;;;;;;;7.17;100.00;98626.60;3841370;75;44046;-23
2020/12/16 09:22:06;;;;;;;17.97;12.03;;;;;;;7.27;100.00;98635.53;3836415;76;44602;-24
2020/12/16 09:27:11;;;;;;;21.00;12.73;;;;;;;7.36;100.00;98636.05;3853966;76;44061;-24
2020/12/16 09:32:19;;;;;;;20.63;13.07;;;;;;;7.43;100.00;98641.72;3848774;76;43589;-24
2020/12/16 09:37:29;;;;;;;21.47;12.40;;;;;;;7.55;100.00;98634.44;3838431;76;44459;-23
2020/12/16 09:42:35;;;;;;;20.57;12.90;;;;;;;7.73;100.00;98624.37;3847718;76;44527;-23
2020/12/16 09:47:46;;;;;;;21.52;13.10;;;;;;;7.97;100.00;98631.54;3832069;75;43734;-24
2020/12/16 09:52:58;;;;;;;20.73;13.17;;;;;;;8.13;100.00;98624.78;3802499;76;71132;-23
2020/12/16 09:58:06;;;;;;;25.85;14.45;;;;;;;8.25;100.00;98625.00;3856308;76;43387;-24
2020/12/16 10:03:15;;;;;;;20.45;13.25;;;;;;;8.36;100.00;98613.77;3836109;76;71225;-24
2020/12/16 10:08:21;;;;;;;21.70;13.37;;;;;;;8.41;100.00;98606.97;3838799;76;44011;-23
2020/12/16 10:13:27;;;;;;;21.37;13.47;;;;;;;8.50;100.00;98603.96;3866214;76;43468;-23
2020/12/16 10:18:33;;;;;;;22.27;14.20;;;;;;;8.57;100.00;98594.33;3812808;76;43340;-23
2020/12/16 10:23:39;;;;;;;22.22;13.20;;;;;;;8.70;100.00;98598.03;3856222;75;73252;-23
2020/12/16 10:28:45;;;;;;;19.67;11.73;;;;;;;8.74;100.00;98594.08;3814316;76;44022;-24
2020/12/16 10:33:51;;;;;;;18.37;12.40;;;;;;;8.89;100.00;98594.45;3818790;76;43439;-24
2020/12/16 10:38:57;;;;;;;17.23;10.53;;;;;;;9.03;100.00;98590.94;3810575;76;44086;-22
2020/12/16 10:44:02;;;;;;;15.35;10.13;;;;;;;9.20;100.00;98582.12;3824240;76;44027;-24
2020/12/16 10:49:08;;;;;;;14.00;9.75;;;;;;;9.39;100.00;98576.28;3800825;77;75259;-21
2020/12/16 10:54:15;;;;;;;14.40;9.90;;;;;;;9.59;100.00;98582.40;3756342;77;44084;-24
2020/12/16 10:59:21;;;;;;;15.53;9.90;;;;;;;9.81;100.00;98570.85;3780576;77;44504;-22
2020/12/16 11:04:28;;;;;;;15.23;9.70;;;;;;;9.89;100.00;98566.06;3734579;77;44001;-24
2020/12/16 11:09:35;;;;;;;14.40;9.65;;;;;;;10.07;100.00;98565.54;3744893;79;44507;-24
2020/12/16 11:14:41;;;;;;;13.30;9.00;;;;;;;10.13;100.00;98566.28;3751369;79;44114;-24
2020/12/16 11:19:47;;;;;;;13.07;9.00;;;;;;;10.23;100.00;98559.45;3703710;79;75634;-24
2020/12/16 11:24:53;;;;;;;13.27;9.30;;;;;;;10.25;100.00;98553.92;3750018;79;42794;-24
2020/12/16 11:29:58;;;;;;;13.10;8.50;;;;;;;10.39;100.00;98560.13;3669696;79;44061;-24
2020/12/16 11:35:05;;;;;;;9.80;6.30;;;;;;;10.33;100.00;98563.41;3737923;77;44610;-24
2020/12/16 11:40:11;;;;;;;6.80;4.55;;;;;;;10.44;100.00;98557.80;3685388;79;44076;-23
2020/12/16 11:45:18;;;;;;;7.13;4.70;;;;;;;10.53;100.00;98565.94;3666882;80;44210;-24
2020/12/16 11:50:24;;;;;;;9.40;5.12;;;;;;;10.60;100.00;98558.41;3659537;81;43714;-24
2020/12/16 11:55:30;;;;;;;8.08;5.05;;;;;;;10.62;100.00;98563.14;3654748;81;43460;-24
2020/12/16 12:00:36;;;;;;;9.35;6.40;;;;;;;10.64;100.00;98557.62;3636984;80;44208;-24
2020/12/16 12:05:41;;;;;;;11.12;7.05;;;;;;;10.70;100.00;98563.70;3626385;80;44026;-24
2020/12/16 12:10:48;;;;;;;6.90;4.97;;;;;;;10.68;100.00;98558.97;3681531;80;44030;-22
2020/12/16 12:15:54;;;;;;;8.33;5.55;;;;;;;10.71;100.00;98551.06;3676490;80;44114;-22
2020/12/16 12:21:00;;;;;;;9.28;5.30;;;;;;;10.74;100.00;98543.53;3688263;80;42891;-23
2020/12/16 12:26:07;;;;;;;4.28;3.00;;;;;;;10.75;100.00;98543.02;3643616;80;43659;-22
2020/12/16 12:31:24;;;;;;;4.87;3.00;;;;;;;10.82;100.00;98547.27;3698394;79;44567;-26
2020/12/16 12:36:30;;;;;;;3.92;3.12;;;;;;;10.87;100.00;98542.25;3677664;80;44112;-25
2020/12/16 12:41:36;;;;;;;4.03;2.92;;;;;;;10.91;100.00;98543.61;3711735;78;42911;-26
2020/12/16 12:46:42;;;;;;;4.70;2.90;;;;;;;11.03;100.00;98538.28;3706795;79;66000;-26
2020/12/16 12:51:52;;;;;;;3.42;2.77;;;;;;;11.16;100.00;98535.64;3713232;79;44054;-27
2020/12/16 12:56:58;;;;;;;5.00;3.52;;;;;;;11.25;100.00;98544.09;3679971;80;44042;-26
2020/12/16 13:02:05;;;;;;;6.23;4.33;;;;;;;11.34;100.00;98555.28;3680167;79;43631;-26
2020/12/16 13:07:13;;;;;;;7.87;5.25;;;;;;;11.47;100.00;98557.98;3743438;78;43783;-25
2020/12/16 13:12:19;;;;;;;8.47;5.07;;;;;;;11.56;100.00;98561.91;3746307;77;69048;-25
2020/12/16 13:17:25;;;;;;;8.73;6.12;;;;;;;11.59;100.00;98567.47;3742886;77;44757;-25
2020/12/16 13:22:33;;;;;;;8.48;5.97;;;;;;;11.66;100.00;98569.88;3701898;79;44106;-27
2020/12/16 13:27:39;;;;;;;10.03;6.05;;;;;;;11.76;100.00;98570.22;3645655;80;43490;-26
2020/12/16 13:32:48;;;;;;;8.88;6.45;;;;;;;11.95;100.00;98574.48;3657425;79;44444;-27
2020/12/16 13:37:54;;;;;;;9.95;6.72;;;;;;;12.02;100.00;98572.33;3647873;80;42908;-26
2020/12/16 13:43:01;;;;;;;9.58;6.42;;;;;;;12.00;100.00;98570.30;3715153;77;44288;-27
2020/12/16 13:48:07;;;;;;;10.20;7.17;;;;;;;12.05;100.00;98573.02;3758141;77;44431;-26
2020/12/16 13:53:15;;;;;;;9.58;6.60;;;;;;;11.86;100.00;98569.08;3808940;76;45341;-27
2020/12/16 13:58:22;;;;;;;10.45;7.12;;;;;;;11.92;100.00;98572.97;3751145;79;44101;-27
2020/12/16 14:03:28;;;;;;;10.50;7.30;;;;;;;11.86;100.00;98566.38;3771150;77;43391;-27
2020/12/16 14:08:35;;;;;;;9.35;6.80;;;;;;;11.82;100.00;98571.76;3755726;79;43736;-27
2020/12/16 14:13:42;;;;;;;9.20;6.55;;;;;;;11.73;100.00;98561.96;3770693;77;43708;-27
2020/12/16 14:18:49;;;;;;;10.08;7.17;;;;;;;11.64;100.00;98564.31;3755379;77;44658;-27
2020/12/16 14:23:55;;;;;;;8.33;6.67;;;;;;;11.76;100.00;98572.41;3754107;79;44140;-27
2020/12/16 14:29:01;;;;;;;7.87;5.80;;;;;;;11.66;100.00;98564.47;3755778;79;43555;-27
2020/12/16 14:34:08;;;;;;;6.92;5.55;;;;;;;11.39;100.00;98563.70;3745598;79;44070;-27
2020/12/16 14:39:14;;;;;;;7.05;5.47;;;;;;;11.07;100.00;98576.05;3754929;77;43714;-27
2020/12/16 14:44:20;;;;;;;7.50;5.20;;;;;;;10.78;100.00;98577.73;3763344;77;43334;-27
2020/12/16 14:49:28;;;;;;;6.15;4.58;;;;;;;10.52;100.00;98574.53;3754764;77;43136;-27
2020/12/16 14:54:34;;;;;;;6.60;4.33;;;;;;;10.29;100.00;98575.00;3769508;78;43306;-27
2020/12/16 14:59:40;;;;;;;7.50;4.75;;;;;;;10.07;100.00;98572.78;3718633;79;43705;-27
2020/12/16 15:04:46;;;;;;;5.87;4.50;;;;;;;9.74;100.00;98578.69;3832667;76;44462;-25
2020/12/16 15:09:52;;;;;;;5.45;4.47;;;;;;;9.45;100.00;98582.42;3815036;76;44030;-25
2020/12/16 15:14:58;;;;;;;5.73;4.20;;;;;;;9.14;100.00;98581.34;3804294;76;44847;-26
2020/12/16 15:20:05;;;;;;;5.70;4.35;;;;;;;8.94;100.00;98589.98;3806377;75;44105;-26
2020/12/16 15:25:12;;;;;;;6.33;4.47;;;;;;;8.74;100.00;98597.27;3804660;76;43733;-26
2020/12/16 15:30:20;;;;;;;6.23;4.50;;;;;;;8.49;100.00;98598.23;3809569;76;69002;-26
2020/12/16 15:35:26;;;;;;;7.87;4.80;;;;;;;8.25;100.00;98607.55;3823732;76;44419;-25
2020/12/16 15:40:33;;;;;;;7.77;5.33;;;;;;;8.12;100.00;98613.19;3802940;76;43677;-26
2020/12/16 15:45:39;;;;;;;6.63;5.33;;;;;;;7.93;100.00;98622.09;3802326;76;44109;-25
2020/12/16 15:50:45;;;;;;;8.77;5.80;;;;;;;7.75;100.00;98626.42;3831539;75;43481;-25
2020/12/16 15:55:51;;;;;;;8.03;5.30;;;;;;;7.57;100.00;98617.72;3811808;76;69506;-22
2020/12/16 16:00:57;;;;;;;7.47;5.93;;;;;;;7.38;100.00;98628.73;3859972;76;43728;-22
2020/12/16 16:06:04;;;;;;;10.50;6.90;;;;;;;7.35;100.00;98628.98;3826424;76;43349;-23
2020/12/16 16:11:11;;;;;;;8.47;6.30;;;;;;;7.24;100.00;98623.73;3834205;76;43981;-22
2020/12/16 16:16:17;;;;;;;10.27;7.27;;;;;;;7.15;100.00;98620.53;3744368;78;44039;-22
2020/12/16 16:21:23;;;;;;;11.53;7.50;;;;;;;7.01;100.00;98634.63;3745470;78;43726;-23
2020/12/16 16:26:29;;;;;;;11.13;7.40;;;;;;;7.03;100.00;98628.66;3691921;78;43706;-22
2020/12/16 16:31:39;;;;;;;12.17;7.67;;;;;;;6.98;100.00;98631.38;3774053;78;44784;-21
2020/12/16 16:36:48;;;;;;;12.03;8.00;;;;;;;6.88;100.00;98632.69;3828906;76;43507;-22
2020/12/16 16:41:54;;;;;;;12.47;8.20;;;;;;;6.84;100.00;98644.13;3858970;76;42863;-22
2020/12/16 16:47:00;;;;;;;13.73;9.23;;;;;;;6.76;100.00;98641.27;3855619;76;43456;-22
2020/12/16 16:52:09;;;;;;;15.47;9.37;;;;;;;6.77;100.00;98641.12;3834369;76;43346;-22
2020/12/16 16:57:18;;;;;;;14.60;9.53;;;;;;;6.76;100.00;98659.51;3756854;77;44011;-22
2020/12/16 17:02:25;;;;;;;15.87;9.73;;;;;;;6.79;100.00;98657.91;3801876;77;43863;-22
2020/12/16 17:07:33;;;;;;;15.87;9.20;;;;;;;6.81;100.00;98662.30;3842280;76;44077;-22
2020/12/16 17:12:45;;;;;;;15.10;9.67;;;;;;;6.84;100.00;98656.17;3849254;75;43729;-22
2020/12/16 17:17:51;;;;;;;15.70;9.90;;;;;;;6.87;100.00;98655.92;3831395;76;44089;-22
2020/12/16 17:22:56;;;;;;;15.13;9.37;;;;;;;6.90;100.00;98660.16;3845272;76;44475;-23
2020/12/16 17:28:03;;;;;;;15.53;10.33;;;;;;;6.90;100.00;98660.16;3848237;75;42887;-22
2020/12/16 17:33:11;;;;;;;18.23;10.37;;;;;;;6.91;100.00;98663.20;3833091;75;44423;-22
2020/12/16 17:38:16;;;;;;;17.97;11.17;;;;;;;6.90;100.00;98670.88;3856671;76;44513;-22
2020/12/16 17:43:22;;;;;;;19.97;12.17;;;;;;;6.86;100.00;98670.30;3842361;76;44036;-22
2020/12/16 17:48:28;;;;;;;19.63;12.00;;;;;;;6.89;100.00;98674.53;3851043;76;43498;-22
2020/12/16 17:53:34;;;;;;;17.57;10.23;;;;;;;6.91;100.00;98673.44;3847743;76;43420;-23
2020/12/16 17:58:40;;;;;;;15.93;9.87;;;;;;;6.92;100.00;98667.58;3811735;76;44203;-23
2020/12/16 18:03:46;;;;;;;18.83;10.70;;;;;;;6.96;100.00;98670.83;3819271;75;44030;-23
2020/12/16 18:08:53;;;;;;;16.90;10.57;;;;;;;6.98;100.00;98670.22;3843986;76;44437;-22
2020/12/16 18:13:59;;;;;;;15.30;9.30;;;;;;;6.91;100.00;98677.92;3845443;76;43377;-23
2020/12/16 18:19:05;;;;;;;15.43;9.47;;;;;;;6.96;100.00;98671.70;3814770;76;44565;-22
2020/12/16 18:24:11;;;;;;;17.03;10.50;;;;;;;6.97;100.00;98673.88;3850686;76;44553;-23
2020/12/16 18:29:17;;;;;;;17.83;10.13;;;;;;;7.00;100.00;98678.47;3834098;76;43726;-23
2020/12/16 18:34:23;;;;;;;17.27;10.77;;;;;;;6.98;100.00;98683.61;3828293;75;44151;-23
2020/12/16 18:39:31;;;;;;;17.93;11.13;;;;;;;6.99;100.00;98680.81;3837032;76;45513;-23
2020/12/16 18:44:37;;;;;;;16.20;10.33;;;;;;;7.00;100.00;98679.81;3855066;76;44143;-23
2020/12/16 18:49:44;;;;;;;18.00;10.10;;;;;;;7.04;100.00;98680.42;3833390;76;43687;-22
2020/12/16 18:54:50;;;;;;;17.93;10.83;;;;;;;7.03;100.00;98688.09;3856431;76;43688;-23
2020/12/16 18:59:56;;;;;;;18.00;10.63;;;;;;;7.06;100.00;98683.31;3801168;78;44739;-23
2020/12/16 19:05:02;;;;;;;19.00;11.43;;;;;;;7.07;100.00;98683.67;3849586;75;44135;-22
2020/12/16 19:10:09;;;;;;;17.90;11.20;;;;;;;7.09;100.00;98683.06;3813737;76;43681;-22
2020/12/16 19:15:16;;;;;;;18.40;10.60;;;;;;;7.13;100.00;98689.47;3845019;76;43774;-23
2020/12/16 19:20:23;;;;;;;18.40;11.10;;;;;;;7.11;100.00;98692.80;3808751;76;43460;-22
2020/12/16 19:25:29;;;;;;;18.43;10.50;;;;;;;7.14;100.00;98688.48;3840892;76;43936;-23
2020/12/16 19:30:36;;;;;;;15.73;9.87;;;;;;;7.13;100.00;98687.66;3803629;75;43256;-24
2020/12/16 19:35:43;;;;;;;16.70;10.63;;;;;;;7.13;100.00;98680.09;3832582;75;44564;-21
2020/12/16 19:40:48;;;;;;;18.17;11.57;;;;;;;7.12;100.00;98674.37;3830674;75;44021;-22
2020/12/16 19:45:57;;;;;;;17.47;10.87;;;;;;;7.14;100.00;98675.09;3861642;76;44461;-21
2020/12/16 19:51:02;;;;;;;17.95;10.98;;;;;;;7.14;100.00;98673.75;3815388;76;77600;-21
2020/12/16 19:56:08;;;;;;;18.50;10.70;;;;;;;7.16;100.00;98658.40;3828263;76;44118;-21
2020/12/16 20:01:14;;;;;;;15.40;10.20;;;;;;;7.16;100.00;98663.28;3856626;76;42965;-21
2020/12/16 20:06:20;;;;;;;16.43;10.17;;;;;;;7.15;100.00;98657.56;3748368;78;43526;-21
2020/12/16 20:11:25;;;;;;;19.23;11.10;;;;;;;7.15;100.00;98652.67;3835417;75;43337;-22
2020/12/16 20:16:31;;;;;;;17.77;11.03;;;;;;;7.15;100.00;98644.64;3845614;75;43728;-22
2020/12/16 20:21:37;;;;;;;15.67;10.20;;;;;;;7.16;100.00;98640.98;3843530;75;43677;-22
2020/12/16 20:26:43;;;;;;;16.83;10.27;;;;;;;7.14;100.00;98640.27;3840691;75;44064;-22
2020/12/16 20:31:49;;;;;;;14.83;9.70;;;;;;;7.18;100.00;98647.06;3844341;75;43348;-22
2020/12/16 20:37:00;;;;;;;17.67;10.70;;;;;;;7.16;100.00;98648.55;3834126;75;44443;-23
2020/12/16 20:42:06;;;;;;;17.20;10.27;;;;;;;7.17;100.00;98656.08;3844961;75;43728;-22
2020/12/16 20:47:12;;;;;;;14.83;9.63;;;;;;;7.18;100.00;98649.23;3845924;75;44163;-22
2020/12/16 20:52:18;;;;;;;15.77;9.27;;;;;;;7.21;100.00;98658.86;3841510;75;43342;-21
2020/12/16 20:57:27;;;;;;;16.87;10.00;;;;;;;7.18;100.00;98657.27;3841502;75;44218;-20
2020/12/16 21:02:33;;;;;;;16.00;10.07;;;;;;;7.24;100.00;98656.75;3837187;75;43655;-21
2020/12/16 21:07:39;;;;;;;17.62;9.90;;;;;;;7.20;100.00;98651.30;3836806;75;42673;-21
2020/12/16 21:12:45;;;;;;;16.17;9.93;;;;;;;7.19;100.00;98642.89;3838831;75;43702;-20
2020/12/16 21:17:51;;;;;;;15.47;9.17;;;;;;;7.22;100.00;98640.46;3837140;75;44022;-20
2020/12/16 21:22:57;;;;;;;15.43;9.50;;;;;;;7.24;100.00;98642.48;3842643;76;44036;-20
2020/12/16 21:28:03;;;;;;;15.53;8.83;;;;;;;7.25;100.00;98641.51;3845498;75;44183;-20
2020/12/16 21:33:08;;;;;;;15.60;9.80;;;;;;;7.20;100.00;98647.27;3842359;75;44042;-20
2020/12/16 21:38:14;;;;;;;14.17;8.93;;;;;;;7.20;100.00;98643.77;3840417;76;44017;-20
2020/12/16 21:43:20;;;;;;;15.13;9.63;;;;;;;7.23;100.00;98638.14;3842457;75;44024;-23
2020/12/16 21:48:26;;;;;;;16.53;9.97;;;;;;;7.16;100.00;98628.45;3838867;75;43401;-20
2020/12/16 21:53:32;;;;;;;16.50;10.00;;;;;;;7.22;100.00;98623.05;3839909;75;44063;-20
2020/12/16 21:58:37;;;;;;;16.07;9.97;;;;;;;7.21;100.00;98616.81;3834524;76;44054;-23
2020/12/16 22:03:44;;;;;;;16.23;9.63;;;;;;;7.20;100.00;98619.64;3839531;76;44034;-23
2020/12/16 22:08:49;;;;;;;17.37;10.20;;;;;;;7.21;100.00;98620.84;3843501;76;43306;-22
2020/12/16 22:13:57;;;;;;;16.33;9.70;;;;;;;7.20;100.00;98625.00;3838260;75;44069;-21
2020/12/16 22:19:02;;;;;;;15.57;9.97;;;;;;;7.20;100.00;98631.20;3838317;75;44091;-23
2020/12/16 22:24:08;;;;;;;18.30;10.13;;;;;;;7.14;100.00;98626.39;3714460;78;43998;-23
2020/12/16 22:29:14;;;;;;;16.57;10.07;;;;;;;7.15;100.00;98629.91;3705575;80;45100;-22
2020/12/16 22:34:20;;;;;;;17.33;9.77;;;;;;;7.12;100.00;98626.14;3706015;79;42808;-22
2020/12/16 22:39:26;;;;;;;16.50;10.30;;;;;;;7.11;100.00;98618.61;3713382;79;44078;-22
2020/12/16 22:44:32;;;;;;;16.47;10.60;;;;;;;7.04;100.00;98612.94;3706356;78;43730;-22
2020/12/16 22:49:38;;;;;;;16.13;9.90;;;;;;;6.96;100.00;98613.25;3791924;76;44043;-22
2020/12/16 22:54:44;;;;;;;18.20;10.53;;;;;;;6.90;100.00;98613.28;3799736;77;43730;-23
2020/12/16 22:59:50;;;;;;;16.63;10.30;;;;;;;6.82;100.00;98611.77;3810310;77;43715;-23
2020/12/16 23:04:57;;;;;;;16.70;9.90;;;;;;;6.77;100.00;98606.31;3738829;77;43983;-22
2020/12/16 23:10:06;;;;;;;17.50;10.57;;;;;;;6.66;100.00;98607.73;3744717;77;44142;-22
2020/12/16 23:15:13;;;;;;;19.63;10.83;;;;;;;6.56;100.00;98601.47;3793743;76;44094;-22
2020/12/16 23:20:21;;;;;;;17.77;10.30;;;;;;;6.48;100.00;98602.98;3731999;77;44058;-22
2020/12/16 23:25:26;;;;;;;16.63;10.17;;;;;;;6.40;100.00;98601.46;3741443;77;43768;-23
2020/12/16 23:30:33;;;;;;;17.30;10.30;;;;;;;6.25;100.00;98606.77;3797577;77;44687;-22
2020/12/16 23:35:38;;;;;;;17.80;10.30;;;;;;;6.16;100.00;98615.93;3744419;77;44014;-23
2020/12/16 23:40:45;;;;;;;17.43;10.60;;;;;;;6.03;100.00;98611.24;3753896;77;43693;-22
2020/12/16 23:45:50;;;;;;;19.00;11.17;;;;;;;5.91;100.00;98612.23;3726310;78;43362;-22